createdAt,value
2022-08-11T00:00:37.477Z,99769.53
2022-08-11T00:03:45.039Z,99770.31
2022-08-11T00:06:48.212Z,99776.69
2022-08-11T00:09:50.055Z,99764.44
2022-08-11T00:13:03.607Z,99774.78
2022-08-11T00:16:20.974Z,99770.78
2022-08-11T00:20:14.171Z,99765.03
2022-08-11T00:22:53.841Z,99764.25
2022-08-11T00:25:55.752Z,99776.97
2022-08-11T00:28:58.188Z,99775.03
2022-08-11T00:32:05.278Z,99773.09
2022-08-11T00:35:56.095Z,99773.09
2022-08-11T00:38:34.679Z,99766.91
2022-08-11T00:41:46.062Z,99761.69
2022-08-11T00:45:25.463Z,99754.34
2022-08-11T00:48:33.797Z,99751.94
2022-08-11T00:52:05.175Z,99748.44
2022-08-11T00:55:26.460Z,99754.06
2022-08-11T00:58:28.114Z,99748.34
2022-08-11T01:02:17.619Z,99752.50
2022-08-11T01:05:46.474Z,99747.56
2022-08-11T01:09:01.658Z,99745.84
2022-08-11T01:12:41.995Z,99745.19
2022-08-11T01:16:01.572Z,99745.88
2022-08-11T01:20:44.970Z,99748.16
2022-08-11T01:23:17.723Z,99743.13
2022-08-11T01:26:37.941Z,99750.25
2022-08-11T01:30:17.578Z,99742.34
2022-08-11T01:34:00.794Z,99737.84
2022-08-11T01:37:23.419Z,99733.81
2022-08-11T01:40:38.022Z,99733.88
2022-08-11T01:44:13.571Z,99728.66
2022-08-11T01:47:52.378Z,99726.03
2022-08-11T01:51:24.182Z,99725.09
2022-08-11T01:54:54.593Z,99720.81
2022-08-11T01:58:15.301Z,99725.41
2022-08-11T02:01:30.494Z,99730.16
2022-08-11T02:04:42.268Z,99719.97
2022-08-11T02:07:57.012Z,99722.28
2022-08-11T02:11:28.607Z,99731.13
2022-08-11T02:14:38.147Z,99712.00
2022-08-11T02:18:00.111Z,99714.41
2022-08-11T02:21:27.657Z,99725.63
2022-08-11T02:24:35.850Z,99723.16
2022-08-11T02:27:37.704Z,99722.16
2022-08-11T02:31:11.121Z,99719.97
2022-08-11T02:34:44.360Z,99719.84
2022-08-11T02:38:43.359Z,99721.03
2022-08-11T02:42:32.929Z,99726.28
2022-08-11T02:45:50.087Z,99722.66
2022-08-11T02:49:22.910Z,99717.03
2022-08-11T02:52:36.996Z,99711.09
2022-08-11T02:55:58.267Z,99715.81
2022-08-11T02:59:33.997Z,99708.09
2022-08-11T03:02:47.802Z,99712.25
2022-08-11T03:06:00.403Z,99713.16
2022-08-11T03:09:20.505Z,99712.56
2022-08-11T03:12:53.532Z,99704.09
2022-08-11T03:16:35.250Z,99711.06
2022-08-11T03:20:15.330Z,99709.53
2022-08-11T03:23:19.822Z,99715.25
2022-08-11T03:26:53.898Z,99711.09
2022-08-11T03:30:32.711Z,99701.97
2022-08-11T03:34:06.714Z,99711.25
2022-08-11T03:37:50.463Z,99710.72
2022-08-11T03:42:03.580Z,99707.16
2022-08-11T03:44:55.782Z,99710.28
2022-08-11T03:48:10.157Z,99706.94
2022-08-11T03:51:44.702Z,99708.75
2022-08-11T03:55:18.041Z,99709.97
2022-08-11T03:58:46.191Z,99702.19
2022-08-11T04:01:57.209Z,99701.31
2022-08-11T04:05:35.995Z,99702.00
2022-08-11T04:09:02.122Z,99706.19
2022-08-11T04:12:35.568Z,99702.50
2022-08-11T04:16:12.504Z,99695.03
2022-08-11T04:19:45.703Z,99701.63
2022-08-11T04:22:59.593Z,99701.31
2022-08-11T04:26:42.774Z,99697.41
2022-08-11T04:30:32.198Z,99693.81
2022-08-11T04:33:55.417Z,99693.94
2022-08-11T04:37:34.860Z,99687.03
2022-08-11T04:40:54.977Z,99698.78
2022-08-11T04:44:33.112Z,99684.94
2022-08-11T04:48:24.655Z,99684.41
2022-08-11T04:52:07.431Z,99695.28
2022-08-11T04:55:33.818Z,99696.88
2022-08-11T04:59:35.954Z,99694.53
2022-08-11T05:03:12.977Z,99695.38
2022-08-11T05:06:31.585Z,99694.28
2022-08-11T05:09:51.776Z,99693.38
2022-08-11T05:12:56.298Z,99704.50
2022-08-11T05:16:20.406Z,99704.78
2022-08-11T05:19:40.693Z,99693.31
2022-08-11T05:23:09.161Z,99696.56
2022-08-11T05:26:46.107Z,99697.69
2022-08-11T05:30:17.503Z,99700.31
2022-08-11T05:33:41.451Z,99698.56
2022-08-11T05:36:50.726Z,99699.09
2022-08-11T05:40:24.821Z,99694.00
2022-08-11T05:44:19.912Z,99696.81
2022-08-11T05:47:25.404Z,99697.78
2022-08-11T05:50:46.080Z,99703.59
2022-08-11T05:54:29.175Z,99700.19
2022-08-11T05:57:49.460Z,99706.88
2022-08-11T06:00:54.121Z,99706.94
2022-08-11T06:04:14.363Z,99707.22
2022-08-11T06:07:17.730Z,99700.66
2022-08-11T06:10:29.140Z,99701.06
2022-08-11T06:13:31.709Z,99699.34
2022-08-11T06:16:38.683Z,99704.69
2022-08-11T06:19:42.067Z,99693.97
2022-08-11T06:22:50.865Z,99696.41
2022-08-11T06:25:56.522Z,99699.41
2022-08-11T06:28:59.707Z,99694.31
2022-08-11T06:32:02.670Z,99697.38
2022-08-11T06:35:13.744Z,99695.50
2022-08-11T06:38:47.475Z,99698.03
2022-08-11T06:41:58.783Z,99695.34
2022-08-11T06:45:30.345Z,99692.19
2022-08-11T06:48:33.963Z,99690.91
2022-08-11T06:51:38.490Z,99689.47
2022-08-11T06:55:05.632Z,99693.00
2022-08-11T06:58:40.920Z,99694.44
2022-08-11T07:02:06.689Z,99688.03
2022-08-11T07:05:23.790Z,99687.81
2022-08-11T07:08:53.050Z,99689.53
2022-08-11T07:12:19.246Z,99695.47
2022-08-11T07:16:10.989Z,99689.41
2022-08-11T07:19:26.365Z,99688.47
2022-08-11T07:22:49.169Z,99690.81
2022-08-11T07:26:11.985Z,99697.44
2022-08-11T07:29:14.614Z,99699.38
2022-08-11T07:32:27.587Z,99697.94
2022-08-11T07:35:42.182Z,99702.69
2022-08-11T07:38:51.510Z,99701.69
2022-08-11T07:41:57.198Z,99695.38
2022-08-11T07:45:17.990Z,99697.16
2022-08-11T07:48:38.674Z,99694.97
2022-08-11T07:52:00.407Z,99690.03
2022-08-11T07:55:16.914Z,99696.78
2022-08-11T07:58:45.556Z,99696.44
2022-08-11T08:02:12.799Z,99697.59
2022-08-11T08:05:33.481Z,99701.75
2022-08-11T08:08:55.280Z,99693.25
2022-08-11T08:12:16.125Z,99696.50
2022-08-11T08:15:39.089Z,99691.44
2022-08-11T08:18:42.182Z,99689.22
2022-08-11T08:21:45.471Z,99697.00
2022-08-11T08:24:48.566Z,99690.25
2022-08-11T08:27:51.455Z,99681.13
2022-08-11T08:30:56.231Z,99683.25
2022-08-11T08:33:58.052Z,99681.66
2022-08-11T08:37:00.313Z,99681.66
2022-08-11T08:40:02.183Z,99673.84
2022-08-11T08:43:05.466Z,99686.53
2022-08-11T08:46:09.598Z,99685.88
2022-08-11T08:49:15.884Z,99686.56
2022-08-11T08:52:30.970Z,99693.16
2022-08-11T08:55:36.318Z,99697.38
2022-08-11T08:58:39.280Z,99695.69
2022-08-11T09:01:48.850Z,99691.03
2022-08-11T09:04:50.859Z,99687.84
2022-08-11T09:07:54.714Z,99687.72
2022-08-11T09:11:14.792Z,99689.31
2022-08-11T09:14:50.847Z,99682.56
2022-08-11T09:18:06.165Z,99670.22
2022-08-11T09:21:08.215Z,99679.34
2022-08-11T09:24:28.770Z,99680.22
2022-08-11T09:27:30.490Z,99676.41
2022-08-11T09:30:32.508Z,99664.25
2022-08-11T09:33:36.280Z,99672.72
2022-08-11T09:36:58.720Z,99677.41
2022-08-11T09:40:18.953Z,99674.94
2022-08-11T09:43:39.919Z,99672.09
2022-08-11T09:46:41.734Z,99670.59
2022-08-11T09:49:43.746Z,99662.84
2022-08-11T09:53:09.938Z,99667.56
2022-08-11T09:56:32.026Z,99655.94
2022-08-11T09:59:34.703Z,99652.69
2022-08-11T10:02:41.155Z,99654.72
2022-08-11T10:06:08.229Z,99655.63
2022-08-11T10:09:10.150Z,99652.44
2022-08-11T10:12:13.053Z,99650.88
2022-08-11T10:16:03.600Z,99648.31
2022-08-11T10:19:06.661Z,99648.94
2022-08-11T10:22:27.701Z,99651.31
2022-08-11T10:25:49.503Z,99641.03
2022-08-11T10:29:12.126Z,99644.75
2022-08-11T10:32:33.311Z,99644.19
2022-08-11T10:35:45.294Z,99644.78
2022-08-11T10:38:51.431Z,99652.19
2022-08-11T10:42:25.612Z,99646.66
2022-08-11T10:46:00.529Z,99646.22
2022-08-11T10:49:02.445Z,99643.69
2022-08-11T10:52:22.753Z,99635.84
2022-08-11T10:55:43.635Z,99637.34
2022-08-11T10:58:51.358Z,99635.16
2022-08-11T11:01:53.569Z,99623.34
2022-08-11T11:05:09.575Z,99618.81
2022-08-11T11:08:56.387Z,99618.81
2022-08-11T11:12:35.910Z,99615.75
2022-08-11T11:15:59.920Z,99608.78
2022-08-11T11:19:04.259Z,99618.59
2022-08-11T11:22:24.423Z,99621.00
2022-08-11T11:26:10.910Z,99613.03
2022-08-11T11:29:35.677Z,99619.97
2022-08-11T11:32:49.847Z,99612.28
2022-08-11T11:36:06.979Z,99602.25
2022-08-11T11:39:09.120Z,99608.16
2022-08-11T11:42:11.793Z,99620.34
2022-08-11T11:45:23.332Z,99608.56
2022-08-11T11:48:28.879Z,99604.63
2022-08-11T11:51:31.185Z,99599.13
2022-08-11T11:54:36.580Z,99598.00
2022-08-11T11:57:59.140Z,99588.97
2022-08-11T12:01:16.458Z,99600.41
2022-08-11T12:04:20.464Z,99589.78
2022-08-11T12:07:42.067Z,99595.25
2022-08-11T12:11:13.946Z,99589.34
2022-08-11T12:14:18.536Z,99598.38
2022-08-11T12:17:20.948Z,99584.63
2022-08-11T12:20:32.031Z,99585.44
2022-08-11T12:23:59.861Z,99582.66
2022-08-11T12:27:24.165Z,99586.59
2022-08-11T12:30:27.715Z,99589.34
2022-08-11T12:33:29.490Z,99577.53
2022-08-11T12:36:35.652Z,99576.34
2022-08-11T12:40:15.932Z,99577.72
2022-08-11T12:43:40.010Z,99584.81
2022-08-11T12:46:44.622Z,99579.47
2022-08-11T12:50:23.223Z,99576.34
2022-08-11T12:53:28.825Z,99575.78
2022-08-11T12:56:59.114Z,99573.50
2022-08-11T13:00:20.314Z,99566.81
2022-08-11T13:03:41.685Z,99560.41
2022-08-11T13:06:43.586Z,99560.97
2022-08-11T13:09:46.226Z,99560.13
2022-08-11T13:12:47.968Z,99553.75
2022-08-11T13:15:50.431Z,99566.41
2022-08-11T13:18:53.456Z,99569.44
2022-08-11T13:21:56.095Z,99551.63
2022-08-11T13:24:58.617Z,99557.31
2022-08-11T13:28:01.681Z,99563.34
2022-08-11T13:31:12.999Z,99559.91
2022-08-11T13:34:16.832Z,99550.94
2022-08-11T13:37:20.206Z,99551.91
2022-08-11T13:40:55.287Z,99546.34
2022-08-11T13:43:57.945Z,99548.56
2022-08-11T13:47:03.941Z,99547.69
2022-08-11T13:50:07.962Z,99529.72
2022-08-11T13:53:12.280Z,99546.47
2022-08-11T13:56:14.099Z,99538.94
2022-08-11T13:59:20.399Z,99540.13
2022-08-11T14:02:31.970Z,99540.78
2022-08-11T14:05:39.458Z,99535.19
2022-08-11T14:08:47.238Z,99525.91
2022-08-11T14:12:23.526Z,99518.97
2022-08-11T14:15:31.198Z,99530.22
2022-08-11T14:18:33.968Z,99525.16
2022-08-11T14:21:56.239Z,99524.13
2022-08-11T14:24:58.683Z,99519.72
2022-08-11T14:28:32.415Z,99516.19
2022-08-11T14:31:25.437Z,99507.34
2022-08-11T14:34:29.510Z,99510.56
2022-08-11T14:37:31.335Z,99506.38
2022-08-11T14:40:51.544Z,99510.06
2022-08-11T14:44:14.747Z,99505.69
2022-08-11T14:47:24.210Z,99516.91
2022-08-11T14:50:29.825Z,99517.03
2022-08-11T14:53:32.154Z,99505.59
2022-08-11T14:56:37.165Z,99495.03
2022-08-11T14:59:39.114Z,99497.09
2022-08-11T15:02:59.922Z,99491.81
2022-08-11T15:06:03.580Z,99503.44
2022-08-11T15:09:09.081Z,99498.53
2022-08-11T15:12:31.106Z,99501.34
2022-08-11T15:15:53.697Z,99505.16
2022-08-11T15:18:55.716Z,99500.06
2022-08-11T15:22:16.087Z,99503.50
2022-08-11T15:25:19.887Z,99497.78
2022-08-11T15:28:40.838Z,99492.03
2022-08-11T15:31:49.112Z,99500.41
2022-08-11T15:35:16.455Z,99498.72
2022-08-11T15:38:20.106Z,99503.28
2022-08-11T15:41:41.059Z,99499.53
2022-08-11T15:45:03.965Z,99496.06
2022-08-11T15:48:11.114Z,99507.13
2022-08-11T15:51:25.389Z,99510.69
2022-08-11T15:54:31.214Z,99511.16
2022-08-11T15:57:52.590Z,99497.88
2022-08-11T16:01:14.219Z,99504.97
2022-08-11T16:04:20.999Z,99501.06
2022-08-11T16:07:31.412Z,99501.03
2022-08-11T16:10:36.347Z,99506.97
2022-08-11T16:13:42.506Z,99505.34
2022-08-11T16:16:44.863Z,99505.78
2022-08-11T16:19:49.026Z,99512.00
2022-08-11T16:23:01.261Z,99506.91
2022-08-11T16:27:10.854Z,99497.53
2022-08-11T16:29:31.716Z,99506.53
2022-08-11T16:32:34.778Z,99506.38
2022-08-11T16:35:56.186Z,99499.13
2022-08-11T16:38:58.100Z,99499.91
2022-08-11T16:43:09.061Z,99503.94
2022-08-11T16:46:00.257Z,99496.13
2022-08-11T16:49:13.928Z,99491.91
2022-08-11T16:52:16.880Z,99493.22
2022-08-11T16:55:52.005Z,99493.22
2022-08-11T16:59:00.261Z,99484.56
2022-08-11T17:02:40.552Z,99491.53
2022-08-11T17:06:03.974Z,99484.28
2022-08-11T17:09:25.317Z,99490.75
2022-08-11T17:12:47.631Z,99496.97
2022-08-11T17:16:06.948Z,99497.75
2022-08-11T17:20:42.820Z,99490.81
2022-08-11T17:23:16.549Z,99496.09
2022-08-11T17:26:21.196Z,99494.69
2022-08-11T17:29:29.807Z,99490.63
2022-08-11T17:33:01.311Z,99490.66
2022-08-11T17:36:03.860Z,99483.25
2022-08-11T17:39:05.672Z,99486.63
2022-08-11T17:42:26.484Z,99486.00
2022-08-11T17:45:46.606Z,99490.25
2022-08-11T17:48:49.023Z,99482.25
2022-08-11T17:52:10.267Z,99478.06
2022-08-11T17:55:51.698Z,99487.59
2022-08-11T17:59:11.195Z,99488.84
2022-08-11T18:02:34.717Z,99488.06
2022-08-11T18:05:38.361Z,99493.63
2022-08-11T18:09:05.924Z,99482.69
2022-08-11T18:12:26.816Z,99491.22
2022-08-11T18:15:50.240Z,99486.84
2022-08-11T18:19:16.551Z,99490.44
2022-08-11T18:22:40.933Z,99484.44
2022-08-11T18:26:07.471Z,99496.84
2022-08-11T18:29:29.075Z,99495.94
2022-08-11T18:32:55.982Z,99497.78
2022-08-11T18:36:19.862Z,99499.34
2022-08-11T18:39:42.515Z,99507.25
2022-08-11T18:43:03.930Z,99504.72
2022-08-11T18:46:26.180Z,99505.59
2022-08-11T18:50:02.546Z,99506.06
2022-08-11T18:53:26.739Z,99500.28
2022-08-11T18:56:48.522Z,99506.44
2022-08-11T19:00:09.323Z,99512.72
2022-08-11T19:03:31.224Z,99503.34
2022-08-11T19:06:52.147Z,99514.75
2022-08-11T19:10:12.959Z,99512.41
2022-08-11T19:13:33.774Z,99524.44
2022-08-11T19:16:55.490Z,99527.44
2022-08-11T19:20:16.306Z,99534.34
2022-08-11T19:23:41.937Z,99536.97
2022-08-11T19:27:02.760Z,99546.16
2022-08-11T19:30:23.655Z,99547.44
2022-08-11T19:34:00.127Z,99546.84
2022-08-11T19:37:27.271Z,99555.03
2022-08-11T19:40:48.561Z,99561.66
2022-08-11T19:44:13.496Z,99556.56
2022-08-11T19:47:42.794Z,99552.59
2022-08-11T19:51:03.631Z,99557.97
2022-08-11T19:54:25.187Z,99560.03
2022-08-11T19:57:50.094Z,99563.66
2022-08-11T20:01:10.366Z,99562.19
2022-08-11T20:04:30.864Z,99563.16
2022-08-11T20:07:52.120Z,99563.25
2022-08-11T20:11:13.412Z,99560.94
2022-08-11T20:14:35.796Z,99566.72
2022-08-11T20:17:57.686Z,99576.00
2022-08-11T20:21:25.925Z,99575.69
2022-08-11T20:24:54.467Z,99578.56
2022-08-11T20:28:17.061Z,99574.81
2022-08-11T20:31:39.712Z,99578.03
2022-08-11T20:35:02.475Z,99573.06
2022-08-11T20:38:23.714Z,99579.69
2022-08-11T20:41:58.197Z,99579.94
2022-08-11T20:45:23.445Z,99578.69
2022-08-11T20:48:45.785Z,99581.22
2022-08-11T20:52:06.470Z,99578.72
2022-08-11T20:55:46.420Z,99585.31
2022-08-11T20:59:17.489Z,99582.16
2022-08-11T21:02:40.135Z,99583.59
2022-08-11T21:06:09.299Z,99582.81
2022-08-11T21:09:58.491Z,99580.31
2022-08-11T21:13:24.000Z,99578.25
2022-08-11T21:16:51.535Z,99591.41
2022-08-11T21:20:21.406Z,99586.88
2022-08-11T21:23:42.104Z,99588.47
2022-08-11T21:27:03.933Z,99585.53
2022-08-11T21:30:24.799Z,99586.66
2022-08-11T21:33:46.181Z,99583.38
2022-08-11T21:37:07.998Z,99585.28
2022-08-11T21:40:28.811Z,99572.38
2022-08-11T21:43:50.092Z,99588.13
2022-08-11T21:47:11.304Z,99586.78
2022-08-11T21:50:31.575Z,99585.19
2022-08-11T21:53:51.937Z,99589.41
2022-08-11T21:57:14.135Z,99594.13
2022-08-11T22:00:34.780Z,99585.19
2022-08-11T22:03:55.176Z,99584.41
2022-08-11T22:07:15.890Z,99594.81
2022-08-11T22:10:42.330Z,99580.31
2022-08-11T22:14:07.011Z,99594.28
2022-08-11T22:17:28.344Z,99599.47
2022-08-11T22:20:49.055Z,99598.56
2022-08-11T22:24:10.186Z,99609.03
2022-08-11T22:27:31.087Z,99605.16
2022-08-11T22:30:51.378Z,99606.00
2022-08-11T22:34:11.680Z,99615.25
2022-08-11T22:37:33.345Z,99615.38
2022-08-11T22:40:54.676Z,99607.53
2022-08-11T22:44:14.977Z,99612.09
2022-08-11T22:47:40.239Z,99613.00
2022-08-11T22:51:01.691Z,99615.47
2022-08-11T22:54:22.861Z,99612.47
2022-08-11T22:57:55.180Z,99620.09
2022-08-11T23:01:22.114Z,99616.34
2022-08-11T23:04:42.690Z,99617.13
2022-08-11T23:08:03.971Z,99612.63
2022-08-11T23:11:24.998Z,99613.50
2022-08-11T23:14:45.289Z,99614.94
2022-08-11T23:18:05.477Z,99613.09
2022-08-11T23:21:26.466Z,99607.88
2022-08-11T23:24:46.875Z,99605.69
2022-08-11T23:28:07.236Z,99610.63
2022-08-11T23:31:29.328Z,99615.13
2022-08-11T23:35:39.298Z,99611.72
2022-08-11T23:38:55.569Z,99605.84
2022-08-11T23:42:15.899Z,99605.09
2022-08-11T23:45:36.204Z,99608.38
2022-08-11T23:48:57.620Z,99610.78
2022-08-11T23:52:19.321Z,99608.22
2022-08-11T23:55:40.992Z,99612.13
2022-08-11T23:59:01.730Z,99610.41
